sensor_id;sensor_type;location;lat;lon;timestamp;temperature;humidity
16479;DHT22;8350;52.316;10.530;2023-04-07T00:01:09;6.60;1.00
16479;DHT22;8350;52.316;10.530;2023-04-07T00:03:38;6.70;1.00
16479;DHT22;8350;52.316;10.530;2023-04-07T00:06:06;6.70;1.00
16479;DHT22;8350;52.316;10.530;2023-04-07T00:08:33;6.80;99.90
16479;DHT22;8350;52.316;10.530;2023-04-07T00:11:00;6.80;99.90
16479;DHT22;8350;52.316;10.530;2023-04-07T00:13:27;6.90;1.00
16479;DHT22;8350;52.316;10.530;2023-04-07T00:15:54;6.90;1.00
16479;DHT22;8350;52.316;10.530;2023-04-07T00:18:21;7.00;1.00
16479;DHT22;8350;52.316;10.530;2023-04-07T00:20:49;7.00;1.00
16479;DHT22;8350;52.316;10.530;2023-04-07T00:23:16;7.00;99.90
16479;DHT22;8350;52.316;10.530;2023-04-07T00:25:44;7.00;99.90
16479;DHT22;8350;52.316;10.530;2023-04-07T00:28:13;6.90;99.90
16479;DHT22;8350;52.316;10.530;2023-04-07T00:30:40;6.90;99.90
16479;DHT22;8350;52.316;10.530;2023-04-07T00:33:07;7.00;99.90
16479;DHT22;8350;52.316;10.530;2023-04-07T00:35:34;7.00;99.90
16479;DHT22;8350;52.316;10.530;2023-04-07T00:38:02;6.90;99.90
16479;DHT22;8350;52.316;10.530;2023-04-07T00:40:30;6.90;96.20
16479;DHT22;8350;52.316;10.530;2023-04-07T00:42:56;6.90;1.00
16479;DHT22;8350;52.316;10.530;2023-04-07T00:45:23;6.90;1.00
16479;DHT22;8350;52.316;10.530;2023-04-07T00:47:50;6.90;1.00
16479;DHT22;8350;52.316;10.530;2023-04-07T00:50:18;6.90;1.00
16479;DHT22;8350;52.316;10.530;2023-04-07T00:52:45;6.80;1.00
16479;DHT22;8350;52.316;10.530;2023-04-07T00:55:13;6.90;1.00
16479;DHT22;8350;52.316;10.530;2023-04-07T00:57:40;6.80;1.00
16479;DHT22;8350;52.316;10.530;2023-04-07T01:00:08;6.80;1.00
16479;DHT22;8350;52.316;10.530;2023-04-07T01:02:40;6.70;1.00
16479;DHT22;8350;52.316;10.530;2023-04-07T01:05:14;6.80;1.00
16479;DHT22;8350;52.316;10.530;2023-04-07T01:07:51;6.70;1.00
16479;DHT22;8350;52.316;10.530;2023-04-07T01:10:27;6.70;1.00
16479;DHT22;8350;52.316;10.530;2023-04-07T01:13:01;6.70;1.00
16479;DHT22;8350;52.316;10.530;2023-04-07T01:15:33;6.70;1.00
16479;DHT22;8350;52.316;10.530;2023-04-07T01:18:05;6.80;1.00
16479;DHT22;8350;52.316;10.530;2023-04-07T01:20:35;6.80;1.00
16479;DHT22;8350;52.316;10.530;2023-04-07T01:23:06;6.70;1.00
16479;DHT22;8350;52.316;10.530;2023-04-07T01:28:43;6.60;1.00
16479;DHT22;8350;52.316;10.530;2023-04-07T01:31:16;6.60;1.00
16479;DHT22;8350;52.316;10.530;2023-04-07T01:33:45;6.60;1.00
16479;DHT22;8350;52.316;10.530;2023-04-07T01:36:14;6.50;8.70
16479;DHT22;8350;52.316;10.530;2023-04-07T01:38:43;6.50;1.00
16479;DHT22;8350;52.316;10.530;2023-04-07T01:41:11;6.50;1.00
16479;DHT22;8350;52.316;10.530;2023-04-07T01:43:40;6.50;1.50
16479;DHT22;8350;52.316;10.530;2023-04-07T01:46:07;6.40;99.90
16479;DHT22;8350;52.316;10.530;2023-04-07T01:48:36;6.40;99.90
16479;DHT22;8350;52.316;10.530;2023-04-07T01:51:05;6.30;99.90
16479;DHT22;8350;52.316;10.530;2023-04-07T01:53:33;6.30;1.00
16479;DHT22;8350;52.316;10.530;2023-04-07T01:56:02;6.30;1.00
16479;DHT22;8350;52.316;10.530;2023-04-07T01:58:30;6.20;1.00
16479;DHT22;8350;52.316;10.530;2023-04-07T02:00:57;6.10;1.00
16479;DHT22;8350;52.316;10.530;2023-04-07T02:03:38;6.00;99.90
16479;DHT22;8350;52.316;10.530;2023-04-07T02:06:08;5.90;1.00
16479;DHT22;8350;52.316;10.530;2023-04-07T02:08:42;5.70;1.00
16479;DHT22;8350;52.316;10.530;2023-04-07T02:11:12;5.60;1.00
16479;DHT22;8350;52.316;10.530;2023-04-07T02:13:41;5.60;45.10
16479;DHT22;8350;52.316;10.530;2023-04-07T02:16:09;5.60;1.00
16479;DHT22;8350;52.316;10.530;2023-04-07T02:18:39;5.60;33.30
16479;DHT22;8350;52.316;10.530;2023-04-07T02:21:07;5.60;99.90
16479;DHT22;8350;52.316;10.530;2023-04-07T02:23:36;5.50;99.90
16479;DHT22;8350;52.316;10.530;2023-04-07T02:26:03;5.30;99.90
16479;DHT22;8350;52.316;10.530;2023-04-07T02:28:37;4.90;1.00
16479;DHT22;8350;52.316;10.530;2023-04-07T02:31:07;4.30;90.60
16479;DHT22;8350;52.316;10.530;2023-04-07T02:33:34;3.90;1.00
16479;DHT22;8350;52.316;10.530;2023-04-07T02:36:02;3.60;1.00
16479;DHT22;8350;52.316;10.530;2023-04-07T02:38:30;3.40;1.00
16479;DHT22;8350;52.316;10.530;2023-04-07T02:41:01;3.10;20.90
16479;DHT22;8350;52.316;10.530;2023-04-07T02:43:27;3.00;80.30
16479;DHT22;8350;52.316;10.530;2023-04-07T02:45:54;3.10;99.90
16479;DHT22;8350;52.316;10.530;2023-04-07T02:48:21;3.10;99.90
16479;DHT22;8350;52.316;10.530;2023-04-07T02:50:48;3.20;99.90
16479;DHT22;8350;52.316;10.530;2023-04-07T02:53:17;3.30;99.90
16479;DHT22;8350;52.316;10.530;2023-04-07T02:55:45;3.40;38.80
16479;DHT22;8350;52.316;10.530;2023-04-07T02:58:15;3.50;41.20
16479;DHT22;8350;52.316;10.530;2023-04-07T03:00:42;3.50;36.70
16479;DHT22;8350;52.316;10.530;2023-04-07T03:03:09;3.50;7.40
16479;DHT22;8350;52.316;10.530;2023-04-07T03:05:36;3.60;1.00
16479;DHT22;8350;52.316;10.530;2023-04-07T03:08:03;3.60;1.00
16479;DHT22;8350;52.316;10.530;2023-04-07T03:10:32;3.60;18.00
16479;DHT22;8350;52.316;10.530;2023-04-07T03:12:59;3.60;16.40
16479;DHT22;8350;52.316;10.530;2023-04-07T03:15:26;3.60;56.70
16479;DHT22;8350;52.316;10.530;2023-04-07T03:17:52;3.50;94.20
16479;DHT22;8350;52.316;10.530;2023-04-07T03:20:20;3.50;99.90
16479;DHT22;8350;52.316;10.530;2023-04-07T03:22:47;3.30;99.90
16479;DHT22;8350;52.316;10.530;2023-04-07T03:25:14;3.10;99.90
16479;DHT22;8350;52.316;10.530;2023-04-07T03:27:43;3.00;99.90
16479;DHT22;8350;52.316;10.530;2023-04-07T03:30:10;3.00;99.90
16479;DHT22;8350;52.316;10.530;2023-04-07T03:32:37;2.90;99.90
16479;DHT22;8350;52.316;10.530;2023-04-07T03:35:05;2.80;99.90
16479;DHT22;8350;52.316;10.530;2023-04-07T03:37:32;2.80;99.90
16479;DHT22;8350;52.316;10.530;2023-04-07T03:39:59;2.80;99.90
16479;DHT22;8350;52.316;10.530;2023-04-07T03:42:26;2.70;99.90
16479;DHT22;8350;52.316;10.530;2023-04-07T03:44:55;2.60;99.90
16479;DHT22;8350;52.316;10.530;2023-04-07T03:47:22;2.50;99.90
16479;DHT22;8350;52.316;10.530;2023-04-07T03:49:49;2.50;99.90
16479;DHT22;8350;52.316;10.530;2023-04-07T03:52:16;2.50;99.90
16479;DHT22;8350;52.316;10.530;2023-04-07T03:54:43;2.30;99.90
16479;DHT22;8350;52.316;10.530;2023-04-07T03:57:10;2.20;99.90
16479;DHT22;8350;52.316;10.530;2023-04-07T03:59:38;2.30;99.90
16479;DHT22;8350;52.316;10.530;2023-04-07T04:02:06;2.20;99.90
16479;DHT22;8350;52.316;10.530;2023-04-07T04:04:33;2.30;99.90
16479;DHT22;8350;52.316;10.530;2023-04-07T04:07:00;2.20;99.90
16479;DHT22;8350;52.316;10.530;2023-04-07T04:09:27;2.20;99.90
16479;DHT22;8350;52.316;10.530;2023-04-07T04:11:56;2.10;99.90
16479;DHT22;8350;52.316;10.530;2023-04-07T04:14:23;2.00;99.90
16479;DHT22;8350;52.316;10.530;2023-04-07T04:16:50;2.00;99.90
16479;DHT22;8350;52.316;10.530;2023-04-07T04:19:19;1.70;1.00
16479;DHT22;8350;52.316;10.530;2023-04-07T04:21:46;1.60;1.00
16479;DHT22;8350;52.316;10.530;2023-04-07T04:24:13;1.40;1.00
16479;DHT22;8350;52.316;10.530;2023-04-07T04:26:40;1.30;1.00
16479;DHT22;8350;52.316;10.530;2023-04-07T04:29:07;1.30;1.00
16479;DHT22;8350;52.316;10.530;2023-04-07T04:31:34;1.20;1.00
16479;DHT22;8350;52.316;10.530;2023-04-07T04:34:01;1.10;1.00
16479;DHT22;8350;52.316;10.530;2023-04-07T04:36:29;1.10;1.00
16479;DHT22;8350;52.316;10.530;2023-04-07T04:38:57;1.10;1.00
16479;DHT22;8350;52.316;10.530;2023-04-07T04:41:24;1.10;1.00
16479;DHT22;8350;52.316;10.530;2023-04-07T04:43:51;1.10;1.00
16479;DHT22;8350;52.316;10.530;2023-04-07T04:46:17;1.10;1.00
16479;DHT22;8350;52.316;10.530;2023-04-07T04:48:44;1.10;1.00
16479;DHT22;8350;52.316;10.530;2023-04-07T04:51:11;1.30;1.00
16479;DHT22;8350;52.316;10.530;2023-04-07T04:53:40;1.30;1.00
16479;DHT22;8350;52.316;10.530;2023-04-07T04:56:07;1.40;1.00
16479;DHT22;8350;52.316;10.530;2023-04-07T04:58:35;1.40;1.00
16479;DHT22;8350;52.316;10.530;2023-04-07T05:01:01;1.40;1.00
16479;DHT22;8350;52.316;10.530;2023-04-07T05:03:29;1.60;1.00
16479;DHT22;8350;52.316;10.530;2023-04-07T05:05:56;1.70;1.00
16479;DHT22;8350;52.316;10.530;2023-04-07T05:08:23;1.70;1.00
16479;DHT22;8350;52.316;10.530;2023-04-07T05:10:55;1.80;1.00
16479;DHT22;8350;52.316;10.530;2023-04-07T05:13:22;2.00;1.00
16479;DHT22;8350;52.316;10.530;2023-04-07T05:15:50;2.60;1.00
16479;DHT22;8350;52.316;10.530;2023-04-07T05:18:17;3.30;99.90
16479;DHT22;8350;52.316;10.530;2023-04-07T05:20:44;3.80;99.90
16479;DHT22;8350;52.316;10.530;2023-04-07T05:23:11;4.30;99.90
16479;DHT22;8350;52.316;10.530;2023-04-07T05:25:38;4.80;1.00
16479;DHT22;8350;52.316;10.530;2023-04-07T05:28:07;5.10;1.00
16479;DHT22;8350;52.316;10.530;2023-04-07T05:30:34;5.40;1.00
16479;DHT22;8350;52.316;10.530;2023-04-07T05:33:01;5.40;1.00
16479;DHT22;8350;52.316;10.530;2023-04-07T05:35:28;5.50;1.00
16479;DHT22;8350;52.316;10.530;2023-04-07T05:37:55;5.80;99.90
16479;DHT22;8350;52.316;10.530;2023-04-07T05:40:22;6.10;99.90
16479;DHT22;8350;52.316;10.530;2023-04-07T05:42:49;6.50;1.00
16479;DHT22;8350;52.316;10.530;2023-04-07T05:45:18;7.00;1.00
16479;DHT22;8350;52.316;10.530;2023-04-07T05:47:45;7.30;99.90
16479;DHT22;8350;52.316;10.530;2023-04-07T05:50:14;7.20;38.30
16479;DHT22;8350;52.316;10.530;2023-04-07T05:52:41;6.90;99.90
16479;DHT22;8350;52.316;10.530;2023-04-07T05:55:08;6.90;99.90
16479;DHT22;8350;52.316;10.530;2023-04-07T05:57:35;7.10;1.00
16479;DHT22;8350;52.316;10.530;2023-04-07T06:00:03;7.00;99.90
16479;DHT22;8350;52.316;10.530;2023-04-07T06:02:31;6.80;99.90
16479;DHT22;8350;52.316;10.530;2023-04-07T06:05:00;6.60;99.90
16479;DHT22;8350;52.316;10.530;2023-04-07T06:07:28;6.20;1.00
16479;DHT22;8350;52.316;10.530;2023-04-07T06:09:55;5.90;99.90
16479;DHT22;8350;52.316;10.530;2023-04-07T06:12:22;5.70;99.90
16479;DHT22;8350;52.316;10.530;2023-04-07T06:14:51;5.60;1.00
16479;DHT22;8350;52.316;10.530;2023-04-07T06:17:18;5.40;1.00
16479;DHT22;8350;52.316;10.530;2023-04-07T06:19:47;5.30;99.90
16479;DHT22;8350;52.316;10.530;2023-04-07T06:22:14;5.20;99.90
16479;DHT22;8350;52.316;10.530;2023-04-07T06:24:41;5.10;99.90
16479;DHT22;8350;52.316;10.530;2023-04-07T06:27:08;5.30;99.90
16479;DHT22;8350;52.316;10.530;2023-04-07T06:29:35;5.50;99.90
16479;DHT22;8350;52.316;10.530;2023-04-07T06:32:02;5.90;1.00
16479;DHT22;8350;52.316;10.530;2023-04-07T06:34:29;6.20;99.90
16479;DHT22;8350;52.316;10.530;2023-04-07T06:36:57;6.60;1.00
16479;DHT22;8350;52.316;10.530;2023-04-07T06:39:25;6.80;99.90
16479;DHT22;8350;52.316;10.530;2023-04-07T06:41:53;7.10;99.90
16479;DHT22;8350;52.316;10.530;2023-04-07T06:44:21;7.30;1.00
16479;DHT22;8350;52.316;10.530;2023-04-07T06:46:48;7.60;1.00
16479;DHT22;8350;52.316;10.530;2023-04-07T06:49:19;7.80;1.00
16479;DHT22;8350;52.316;10.530;2023-04-07T06:51:46;7.80;99.90
16479;DHT22;8350;52.316;10.530;2023-04-07T06:54:15;7.90;99.90
16479;DHT22;8350;52.316;10.530;2023-04-07T06:56:42;8.00;99.90
16479;DHT22;8350;52.316;10.530;2023-04-07T06:59:10;7.90;99.90
16479;DHT22;8350;52.316;10.530;2023-04-07T07:01:37;7.70;1.00
16479;DHT22;8350;52.316;10.530;2023-04-07T07:04:04;7.70;1.00
16479;DHT22;8350;52.316;10.530;2023-04-07T07:06:31;7.80;1.00
16479;DHT22;8350;52.316;10.530;2023-04-07T07:08:58;7.80;99.90
16479;DHT22;8350;52.316;10.530;2023-04-07T07:11:29;7.70;89.80
16479;DHT22;8350;52.316;10.530;2023-04-07T07:13:56;7.80;99.90
16479;DHT22;8350;52.316;10.530;2023-04-07T07:16:22;7.80;1.00
16479;DHT22;8350;52.316;10.530;2023-04-07T07:18:50;7.70;1.00
16479;DHT22;8350;52.316;10.530;2023-04-07T07:21:17;7.80;1.00
16479;DHT22;8350;52.316;10.530;2023-04-07T07:23:44;7.80;1.00
16479;DHT22;8350;52.316;10.530;2023-04-07T07:26:11;7.70;1.00
16479;DHT22;8350;52.316;10.530;2023-04-07T07:28:39;7.70;1.00
16479;DHT22;8350;52.316;10.530;2023-04-07T07:31:09;7.90;1.00
16479;DHT22;8350;52.316;10.530;2023-04-07T07:33:38;7.90;1.00
16479;DHT22;8350;52.316;10.530;2023-04-07T07:36:06;8.20;1.00
16479;DHT22;8350;52.316;10.530;2023-04-07T07:38:33;8.30;1.00
16479;DHT22;8350;52.316;10.530;2023-04-07T07:41:00;8.40;99.90
16479;DHT22;8350;52.316;10.530;2023-04-07T07:43:27;8.50;1.00
16479;DHT22;8350;52.316;10.530;2023-04-07T07:45:56;8.50;99.90
16479;DHT22;8350;52.316;10.530;2023-04-07T07:48:25;8.50;1.00
16479;DHT22;8350;52.316;10.530;2023-04-07T07:50:52;8.40;1.00
16479;DHT22;8350;52.316;10.530;2023-04-07T07:53:21;8.40;1.00
16479;DHT22;8350;52.316;10.530;2023-04-07T07:55:48;8.50;99.90
16479;DHT22;8350;52.316;10.530;2023-04-07T07:58:15;8.70;1.00
16479;DHT22;8350;52.316;10.530;2023-04-07T08:00:42;8.80;1.00
16479;DHT22;8350;52.316;10.530;2023-04-07T08:03:11;9.00;99.90
16479;DHT22;8350;52.316;10.530;2023-04-07T08:05:38;9.00;85.60
16479;DHT22;8350;52.316;10.530;2023-04-07T08:08:05;9.10;14.30
16479;DHT22;8350;52.316;10.530;2023-04-07T08:10:37;9.30;1.00
16479;DHT22;8350;52.316;10.530;2023-04-07T08:13:04;9.20;99.90
16479;DHT22;8350;52.316;10.530;2023-04-07T08:15:31;9.20;1.00
16479;DHT22;8350;52.316;10.530;2023-04-07T08:17:58;9.30;99.90
16479;DHT22;8350;52.316;10.530;2023-04-07T08:20:30;9.40;1.00
16479;DHT22;8350;52.316;10.530;2023-04-07T08:22:57;9.40;1.00
16479;DHT22;8350;52.316;10.530;2023-04-07T08:25:27;9.60;1.00
16479;DHT22;8350;52.316;10.530;2023-04-07T08:27:54;9.70;99.90
16479;DHT22;8350;52.316;10.530;2023-04-07T08:30:27;9.50;99.90
16479;DHT22;8350;52.316;10.530;2023-04-07T08:32:54;9.70;1.00
16479;DHT22;8350;52.316;10.530;2023-04-07T08:35:21;9.90;99.90
16479;DHT22;8350;52.316;10.530;2023-04-07T08:37:50;9.80;1.00
16479;DHT22;8350;52.316;10.530;2023-04-07T08:40:17;9.70;1.00
16479;DHT22;8350;52.316;10.530;2023-04-07T08:42:46;9.80;1.00
16479;DHT22;8350;52.316;10.530;2023-04-07T08:45:16;9.70;1.00
16479;DHT22;8350;52.316;10.530;2023-04-07T08:47:43;9.60;1.00
16479;DHT22;8350;52.316;10.530;2023-04-07T08:50:16;9.80;1.00
16479;DHT22;8350;52.316;10.530;2023-04-07T08:52:45;9.90;99.90
16479;DHT22;8350;52.316;10.530;2023-04-07T08:55:17;9.90;1.00
16479;DHT22;8350;52.316;10.530;2023-04-07T08:57:45;10.00;99.90
16479;DHT22;8350;52.316;10.530;2023-04-07T09:00:13;10.00;33.50
16479;DHT22;8350;52.316;10.530;2023-04-07T09:02:41;10.10;28.90
16479;DHT22;8350;52.316;10.530;2023-04-07T09:05:10;10.20;1.00
16479;DHT22;8350;52.316;10.530;2023-04-07T09:07:39;10.30;1.00
16479;DHT22;8350;52.316;10.530;2023-04-07T09:10:08;10.40;1.00
16479;DHT22;8350;52.316;10.530;2023-04-07T09:12:37;10.50;1.00
16479;DHT22;8350;52.316;10.530;2023-04-07T09:15:05;10.40;1.00
16479;DHT22;8350;52.316;10.530;2023-04-07T09:17:33;10.60;21.30
16479;DHT22;8350;52.316;10.530;2023-04-07T09:20:01;10.80;1.00
16479;DHT22;8350;52.316;10.530;2023-04-07T09:22:35;10.70;1.00
16479;DHT22;8350;52.316;10.530;2023-04-07T09:25:13;10.70;99.90
16479;DHT22;8350;52.316;10.530;2023-04-07T09:27:55;10.90;1.00
16479;DHT22;8350;52.316;10.530;2023-04-07T09:30:22;11.10;99.90
16479;DHT22;8350;52.316;10.530;2023-04-07T09:32:50;11.20;99.90
16479;DHT22;8350;52.316;10.530;2023-04-07T09:35:17;11.20;1.00
16479;DHT22;8350;52.316;10.530;2023-04-07T09:37:47;11.30;1.00
16479;DHT22;8350;52.316;10.530;2023-04-07T09:40:26;11.20;1.00
16479;DHT22;8350;52.316;10.530;2023-04-07T09:42:55;11.10;1.00
16479;DHT22;8350;52.316;10.530;2023-04-07T09:45:23;11.10;1.00
16479;DHT22;8350;52.316;10.530;2023-04-07T09:47:52;11.20;1.00
16479;DHT22;8350;52.316;10.530;2023-04-07T09:50:30;11.30;1.00
16479;DHT22;8350;52.316;10.530;2023-04-07T09:52:59;11.40;1.00
16479;DHT22;8350;52.316;10.530;2023-04-07T09:55:27;11.60;1.00
16479;DHT22;8350;52.316;10.530;2023-04-07T09:57:56;11.60;1.00
16479;DHT22;8350;52.316;10.530;2023-04-07T10:00:24;11.60;1.00
16479;DHT22;8350;52.316;10.530;2023-04-07T10:02:51;11.60;1.00
16479;DHT22;8350;52.316;10.530;2023-04-07T10:05:19;11.50;1.00
16479;DHT22;8350;52.316;10.530;2023-04-07T10:07:47;11.50;1.00
16479;DHT22;8350;52.316;10.530;2023-04-07T10:10:17;11.70;1.00
16479;DHT22;8350;52.316;10.530;2023-04-07T10:12:44;11.70;1.00
16479;DHT22;8350;52.316;10.530;2023-04-07T10:15:13;12.00;1.00
16479;DHT22;8350;52.316;10.530;2023-04-07T10:17:45;12.10;1.00
16479;DHT22;8350;52.316;10.530;2023-04-07T10:20:14;12.20;1.00
16479;DHT22;8350;52.316;10.530;2023-04-07T10:22:47;12.10;1.00
16479;DHT22;8350;52.316;10.530;2023-04-07T10:25:17;12.20;99.90
16479;DHT22;8350;52.316;10.530;2023-04-07T10:27:48;12.20;1.00
16479;DHT22;8350;52.316;10.530;2023-04-07T10:30:21;12.10;99.90
16479;DHT22;8350;52.316;10.530;2023-04-07T10:32:50;12.10;99.90
16479;DHT22;8350;52.316;10.530;2023-04-07T10:35:18;12.00;99.90
16479;DHT22;8350;52.316;10.530;2023-04-07T10:38:12;12.10;99.90
16479;DHT22;8350;52.316;10.530;2023-04-07T10:40:41;12.30;1.00
16479;DHT22;8350;52.316;10.530;2023-04-07T10:43:09;12.20;99.90
16479;DHT22;8350;52.316;10.530;2023-04-07T10:45:54;12.30;99.90
16479;DHT22;8350;52.316;10.530;2023-04-07T10:48:30;12.60;1.00
16479;DHT22;8350;52.316;10.530;2023-04-07T10:51:19;12.50;1.00
16479;DHT22;8350;52.316;10.530;2023-04-07T10:54:19;12.40;99.90
16479;DHT22;8350;52.316;10.530;2023-04-07T10:57:06;12.30;99.90
16479;DHT22;8350;52.316;10.530;2023-04-07T10:59:39;12.60;99.90
16479;DHT22;8350;52.316;10.530;2023-04-07T11:02:39;12.60;99.90
16479;DHT22;8350;52.316;10.530;2023-04-07T11:05:07;12.60;99.90
16479;DHT22;8350;52.316;10.530;2023-04-07T11:07:47;12.70;99.90
16479;DHT22;8350;52.316;10.530;2023-04-07T11:10:16;12.60;99.90
16479;DHT22;8350;52.316;10.530;2023-04-07T11:12:57;12.50;24.00
16479;DHT22;8350;52.316;10.530;2023-04-07T11:15:25;12.70;99.90
16479;DHT22;8350;52.316;10.530;2023-04-07T11:18:14;12.60;99.90
16479;DHT22;8350;52.316;10.530;2023-04-07T11:20:44;12.30;99.90
16479;DHT22;8350;52.316;10.530;2023-04-07T11:23:12;12.50;1.00
16479;DHT22;8350;52.316;10.530;2023-04-07T11:25:42;12.40;99.90
16479;DHT22;8350;52.316;10.530;2023-04-07T11:28:11;12.60;1.00
16479;DHT22;8350;52.316;10.530;2023-04-07T11:30:48;12.80;99.90
16479;DHT22;8350;52.316;10.530;2023-04-07T11:33:20;12.90;99.90
16479;DHT22;8350;52.316;10.530;2023-04-07T11:35:52;12.80;1.00
16479;DHT22;8350;52.316;10.530;2023-04-07T11:38:20;12.80;31.50
16479;DHT22;8350;52.316;10.530;2023-04-07T11:40:47;12.80;99.90
16479;DHT22;8350;52.316;10.530;2023-04-07T11:43:16;12.90;48.30
16479;DHT22;8350;52.316;10.530;2023-04-07T11:45:43;13.00;1.00
16479;DHT22;8350;52.316;10.530;2023-04-07T11:48:28;13.20;99.90
16479;DHT22;8350;52.316;10.530;2023-04-07T11:50:56;13.20;99.90
16479;DHT22;8350;52.316;10.530;2023-04-07T11:53:28;13.10;1.00
16479;DHT22;8350;52.316;10.530;2023-04-07T11:56:02;13.20;1.00
16479;DHT22;8350;52.316;10.530;2023-04-07T11:58:29;13.30;1.00
16479;DHT22;8350;52.316;10.530;2023-04-07T12:00:57;13.40;1.00
16479;DHT22;8350;52.316;10.530;2023-04-07T12:03:24;13.40;1.00
16479;DHT22;8350;52.316;10.530;2023-04-07T12:05:53;13.40;1.00
16479;DHT22;8350;52.316;10.530;2023-04-07T12:08:35;13.50;1.00
16479;DHT22;8350;52.316;10.530;2023-04-07T12:11:05;13.40;1.00
16479;DHT22;8350;52.316;10.530;2023-04-07T12:13:33;13.40;1.00
16479;DHT22;8350;52.316;10.530;2023-04-07T12:16:01;13.40;1.00
16479;DHT22;8350;52.316;10.530;2023-04-07T12:18:28;13.10;1.00
16479;DHT22;8350;52.316;10.530;2023-04-07T12:20:57;12.90;1.00
16479;DHT22;8350;52.316;10.530;2023-04-07T12:23:24;13.00;1.00
16479;DHT22;8350;52.316;10.530;2023-04-07T12:25:52;13.40;1.00
16479;DHT22;8350;52.316;10.530;2023-04-07T12:28:18;13.50;1.00
16479;DHT22;8350;52.316;10.530;2023-04-07T12:30:46;13.40;1.00
16479;DHT22;8350;52.316;10.530;2023-04-07T12:33:13;13.40;1.00
16479;DHT22;8350;52.316;10.530;2023-04-07T12:35:42;12.90;99.90
16479;DHT22;8350;52.316;10.530;2023-04-07T12:38:11;12.90;1.00
16479;DHT22;8350;52.316;10.530;2023-04-07T12:40:38;13.00;1.00
16479;DHT22;8350;52.316;10.530;2023-04-07T12:43:05;12.90;1.00
16479;DHT22;8350;52.316;10.530;2023-04-07T12:45:32;13.10;99.90
16479;DHT22;8350;52.316;10.530;2023-04-07T12:47:59;13.30;99.90
16479;DHT22;8350;52.316;10.530;2023-04-07T12:50:27;13.60;99.90
16479;DHT22;8350;52.316;10.530;2023-04-07T12:52:55;13.50;99.90
16479;DHT22;8350;52.316;10.530;2023-04-07T12:55:24;13.50;99.90
16479;DHT22;8350;52.316;10.530;2023-04-07T12:57:51;13.60;99.90
16479;DHT22;8350;52.316;10.530;2023-04-07T13:00:20;13.40;97.90
16479;DHT22;8350;52.316;10.530;2023-04-07T13:02:47;13.40;99.90
16479;DHT22;8350;52.316;10.530;2023-04-07T13:05:16;13.60;99.90
16479;DHT22;8350;52.316;10.530;2023-04-07T13:07:44;13.80;99.90
16479;DHT22;8350;52.316;10.530;2023-04-07T13:10:11;13.80;99.90
16479;DHT22;8350;52.316;10.530;2023-04-07T13:12:39;13.70;99.90
16479;DHT22;8350;52.316;10.530;2023-04-07T13:15:09;13.70;99.90
16479;DHT22;8350;52.316;10.530;2023-04-07T13:17:36;13.50;1.00
16479;DHT22;8350;52.316;10.530;2023-04-07T13:20:06;13.50;1.00
16479;DHT22;8350;52.316;10.530;2023-04-07T13:22:33;13.60;1.00
16479;DHT22;8350;52.316;10.530;2023-04-07T13:25:00;13.60;1.00
16479;DHT22;8350;52.316;10.530;2023-04-07T13:27:27;13.70;1.00
16479;DHT22;8350;52.316;10.530;2023-04-07T13:29:55;13.70;99.90
16479;DHT22;8350;52.316;10.530;2023-04-07T13:32:22;13.60;99.90
16479;DHT22;8350;52.316;10.530;2023-04-07T13:34:50;13.50;99.90
16479;DHT22;8350;52.316;10.530;2023-04-07T13:37:17;13.40;99.90
16479;DHT22;8350;52.316;10.530;2023-04-07T13:39:45;13.50;99.90
16479;DHT22;8350;52.316;10.530;2023-04-07T13:42:13;13.60;99.90
16479;DHT22;8350;52.316;10.530;2023-04-07T13:44:42;13.70;99.90
16479;DHT22;8350;52.316;10.530;2023-04-07T13:47:12;13.70;99.90
16479;DHT22;8350;52.316;10.530;2023-04-07T13:49:45;13.70;99.90
16479;DHT22;8350;52.316;10.530;2023-04-07T13:52:12;13.60;99.90
16479;DHT22;8350;52.316;10.530;2023-04-07T13:54:39;13.50;99.90
16479;DHT22;8350;52.316;10.530;2023-04-07T13:57:06;13.50;99.90
16479;DHT22;8350;52.316;10.530;2023-04-07T13:59:33;13.50;99.90
16479;DHT22;8350;52.316;10.530;2023-04-07T14:02:04;13.40;99.90
16479;DHT22;8350;52.316;10.530;2023-04-07T14:04:32;13.50;99.90
16479;DHT22;8350;52.316;10.530;2023-04-07T14:06:59;13.50;99.90
16479;DHT22;8350;52.316;10.530;2023-04-07T14:09:26;13.60;99.90
16479;DHT22;8350;52.316;10.530;2023-04-07T14:11:53;13.70;99.90
16479;DHT22;8350;52.316;10.530;2023-04-07T14:14:20;13.70;58.20
16479;DHT22;8350;52.316;10.530;2023-04-07T14:16:47;13.40;99.90
16479;DHT22;8350;52.316;10.530;2023-04-07T14:19:16;13.40;99.90
16479;DHT22;8350;52.316;10.530;2023-04-07T14:21:44;13.10;99.90
16479;DHT22;8350;52.316;10.530;2023-04-07T14:24:11;13.00;99.90
16479;DHT22;8350;52.316;10.530;2023-04-07T14:26:45;12.90;99.90
16479;DHT22;8350;52.316;10.530;2023-04-07T14:29:12;13.10;1.00
16479;DHT22;8350;52.316;10.530;2023-04-07T14:31:42;13.20;1.00
16479;DHT22;8350;52.316;10.530;2023-04-07T14:34:13;13.30;99.90
16479;DHT22;8350;52.316;10.530;2023-04-07T14:36:40;13.30;99.90
16479;DHT22;8350;52.316;10.530;2023-04-07T14:39:08;13.40;1.00
16479;DHT22;8350;52.316;10.530;2023-04-07T14:41:37;13.30;1.00
16479;DHT22;8350;52.316;10.530;2023-04-07T14:44:03;13.30;1.00
16479;DHT22;8350;52.316;10.530;2023-04-07T14:46:31;13.30;1.00
16479;DHT22;8350;52.316;10.530;2023-04-07T14:48:58;13.20;3.40
16479;DHT22;8350;52.316;10.530;2023-04-07T14:51:25;13.10;1.00
16479;DHT22;8350;52.316;10.530;2023-04-07T14:53:52;13.10;1.00
16479;DHT22;8350;52.316;10.530;2023-04-07T14:56:24;12.90;1.00
16479;DHT22;8350;52.316;10.530;2023-04-07T14:58:50;12.80;1.00
16479;DHT22;8350;52.316;10.530;2023-04-07T15:01:18;12.70;1.00
16479;DHT22;8350;52.316;10.530;2023-04-07T15:03:45;12.70;1.00
16479;DHT22;8350;52.316;10.530;2023-04-07T15:06:12;12.80;1.00
16479;DHT22;8350;52.316;10.530;2023-04-07T15:08:41;12.70;1.00
16479;DHT22;8350;52.316;10.530;2023-04-07T15:11:08;12.80;1.00
16479;DHT22;8350;52.316;10.530;2023-04-07T15:13:39;12.80;5.80
16479;DHT22;8350;52.316;10.530;2023-04-07T15:16:10;12.60;1.00
16479;DHT22;8350;52.316;10.530;2023-04-07T15:18:38;12.50;1.00
16479;DHT22;8350;52.316;10.530;2023-04-07T15:21:05;12.60;99.90
16479;DHT22;8350;52.316;10.530;2023-04-07T15:23:33;12.70;99.90
16479;DHT22;8350;52.316;10.530;2023-04-07T15:26:02;12.70;99.90
16479;DHT22;8350;52.316;10.530;2023-04-07T15:28:29;12.70;1.00
16479;DHT22;8350;52.316;10.530;2023-04-07T15:30:58;12.50;99.90
16479;DHT22;8350;52.316;10.530;2023-04-07T15:33:25;12.50;99.90
16479;DHT22;8350;52.316;10.530;2023-04-07T15:35:52;12.40;1.00
16479;DHT22;8350;52.316;10.530;2023-04-07T15:38:19;12.20;1.00
16479;DHT22;8350;52.316;10.530;2023-04-07T15:40:46;12.00;1.00
16479;DHT22;8350;52.316;10.530;2023-04-07T15:43:13;12.00;1.00
16479;DHT22;8350;52.316;10.530;2023-04-07T15:45:40;11.70;1.00
16479;DHT22;8350;52.316;10.530;2023-04-07T15:48:09;11.70;99.90
16479;DHT22;8350;52.316;10.530;2023-04-07T15:50:36;11.80;99.90
16479;DHT22;8350;52.316;10.530;2023-04-07T15:53:04;11.80;99.90
16479;DHT22;8350;52.316;10.530;2023-04-07T15:55:32;11.80;53.10
16479;DHT22;8350;52.316;10.530;2023-04-07T15:58:00;11.80;4.10
16479;DHT22;8350;52.316;10.530;2023-04-07T16:00:27;11.80;99.90